sensor_id;sensor_type;location;lat;lon;timestamp;P1;durP1;ratioP1;P2;durP2;ratioP2
9892;SDS011;4985;49.092;8.542;2023-04-25T00:01:44;3.83;;;2.10;;
9892;SDS011;4985;49.092;8.542;2023-04-25T00:04:11;2.70;;;1.97;;
9892;SDS011;4985;49.092;8.542;2023-04-25T00:06:39;3.60;;;1.87;;
9892;SDS011;4985;49.092;8.542;2023-04-25T00:09:06;2.80;;;2.10;;
9892;SDS011;4985;49.092;8.542;2023-04-25T00:11:35;4.47;;;1.80;;
9892;SDS011;4985;49.092;8.542;2023-04-25T00:14:02;2.03;;;1.63;;
9892;SDS011;4985;49.092;8.542;2023-04-25T00:16:29;2.90;;;2.00;;
9892;SDS011;4985;49.092;8.542;2023-04-25T00:18:58;2.17;;;1.87;;
9892;SDS011;4985;49.092;8.542;2023-04-25T00:21:25;4.20;;;1.90;;
9892;SDS011;4985;49.092;8.542;2023-04-25T00:23:54;1.93;;;1.60;;
9892;SDS011;4985;49.092;8.542;2023-04-25T00:26:21;2.67;;;1.73;;
9892;SDS011;4985;49.092;8.542;2023-04-25T00:28:48;3.23;;;1.60;;
9892;SDS011;4985;49.092;8.542;2023-04-25T00:31:15;2.80;;;1.97;;
9892;SDS011;4985;49.092;8.542;2023-04-25T00:33:41;3.40;;;1.93;;
9892;SDS011;4985;49.092;8.542;2023-04-25T00:36:08;2.47;;;1.87;;
9892;SDS011;4985;49.092;8.542;2023-04-25T00:38:35;2.00;;;1.67;;
9892;SDS011;4985;49.092;8.542;2023-04-25T00:41:04;2.60;;;1.83;;
9892;SDS011;4985;49.092;8.542;2023-04-25T00:43:32;1.53;;;1.40;;
9892;SDS011;4985;49.092;8.542;2023-04-25T00:46:00;1.63;;;1.50;;
9892;SDS011;4985;49.092;8.542;2023-04-25T00:48:27;3.10;;;1.70;;
9892;SDS011;4985;49.092;8.542;2023-04-25T00:50:54;3.40;;;1.60;;
9892;SDS011;4985;49.092;8.542;2023-04-25T00:53:23;3.47;;;1.77;;
9892;SDS011;4985;49.092;8.542;2023-04-25T00:55:50;1.93;;;1.50;;
9892;SDS011;4985;49.092;8.542;2023-04-25T00:58:20;2.23;;;1.90;;
9892;SDS011;4985;49.092;8.542;2023-04-25T01:00:47;2.30;;;2.03;;
9892;SDS011;4985;49.092;8.542;2023-04-25T01:03:15;2.00;;;1.70;;
9892;SDS011;4985;49.092;8.542;2023-04-25T01:05:44;2.60;;;2.00;;
9892;SDS011;4985;49.092;8.542;2023-04-25T01:08:11;2.43;;;1.90;;
9892;SDS011;4985;49.092;8.542;2023-04-25T01:10:39;1.83;;;1.50;;
9892;SDS011;4985;49.092;8.542;2023-04-25T01:13:06;2.20;;;1.80;;
9892;SDS011;4985;49.092;8.542;2023-04-25T01:15:34;2.67;;;2.00;;
9892;SDS011;4985;49.092;8.542;2023-04-25T01:18:01;2.10;;;1.90;;
9892;SDS011;4985;49.092;8.542;2023-04-25T01:20:28;1.63;;;1.53;;
9892;SDS011;4985;49.092;8.542;2023-04-25T01:22:59;2.50;;;1.77;;
9892;SDS011;4985;49.092;8.542;2023-04-25T01:25:27;2.10;;;1.90;;
9892;SDS011;4985;49.092;8.542;2023-04-25T01:27:54;1.90;;;1.53;;
9892;SDS011;4985;49.092;8.542;2023-04-25T01:30:21;2.07;;;1.63;;
9892;SDS011;4985;49.092;8.542;2023-04-25T01:32:47;1.93;;;1.50;;
9892;SDS011;4985;49.092;8.542;2023-04-25T01:35:15;2.80;;;1.60;;
9892;SDS011;4985;49.092;8.542;2023-04-25T01:37:42;1.90;;;1.67;;
9892;SDS011;4985;49.092;8.542;2023-04-25T01:40:11;1.43;;;1.33;;
9892;SDS011;4985;49.092;8.542;2023-04-25T01:42:39;2.90;;;1.60;;
9892;SDS011;4985;49.092;8.542;2023-04-25T01:45:08;2.07;;;1.87;;
9892;SDS011;4985;49.092;8.542;2023-04-25T01:47:35;2.53;;;1.80;;
9892;SDS011;4985;49.092;8.542;2023-04-25T01:50:03;3.20;;;1.70;;
9892;SDS011;4985;49.092;8.542;2023-04-25T01:52:30;2.63;;;1.77;;
9892;SDS011;4985;49.092;8.542;2023-04-25T01:54:57;2.43;;;1.80;;
9892;SDS011;4985;49.092;8.542;2023-04-25T01:57:27;2.00;;;1.80;;
9892;SDS011;4985;49.092;8.542;2023-04-25T01:59:54;3.87;;;2.23;;
9892;SDS011;4985;49.092;8.542;2023-04-25T02:02:24;2.63;;;1.60;;
9892;SDS011;4985;49.092;8.542;2023-04-25T02:04:51;2.93;;;1.97;;
9892;SDS011;4985;49.092;8.542;2023-04-25T02:07:19;2.47;;;1.60;;
9892;SDS011;4985;49.092;8.542;2023-04-25T02:09:45;3.10;;;2.13;;
9892;SDS011;4985;49.092;8.542;2023-04-25T02:12:12;2.07;;;1.50;;
9892;SDS011;4985;49.092;8.542;2023-04-25T02:14:40;2.83;;;1.60;;
9892;SDS011;4985;49.092;8.542;2023-04-25T02:17:07;1.67;;;1.50;;
9892;SDS011;4985;49.092;8.542;2023-04-25T02:19:33;2.97;;;2.00;;
9892;SDS011;4985;49.092;8.542;2023-04-25T02:22:00;1.37;;;1.27;;
9892;SDS011;4985;49.092;8.542;2023-04-25T02:24:26;1.93;;;1.67;;
9892;SDS011;4985;49.092;8.542;2023-04-25T02:26:54;1.97;;;1.60;;
9892;SDS011;4985;49.092;8.542;2023-04-25T02:29:21;3.70;;;1.80;;
9892;SDS011;4985;49.092;8.542;2023-04-25T02:31:49;3.07;;;1.67;;
9892;SDS011;4985;49.092;8.542;2023-04-25T02:34:15;3.83;;;1.90;;
9892;SDS011;4985;49.092;8.542;2023-04-25T02:36:42;1.83;;;1.70;;
9892;SDS011;4985;49.092;8.542;2023-04-25T02:39:08;2.53;;;1.80;;
9892;SDS011;4985;49.092;8.542;2023-04-25T02:41:35;3.90;;;2.00;;
9892;SDS011;4985;49.092;8.542;2023-04-25T02:44:01;1.93;;;1.73;;
9892;SDS011;4985;49.092;8.542;2023-04-25T02:46:28;2.30;;;1.83;;
9892;SDS011;4985;49.092;8.542;2023-04-25T02:48:56;2.33;;;1.93;;
9892;SDS011;4985;49.092;8.542;2023-04-25T02:51:23;3.63;;;2.00;;
9892;SDS011;4985;49.092;8.542;2023-04-25T02:53:49;3.30;;;2.30;;
9892;SDS011;4985;49.092;8.542;2023-04-25T02:56:16;3.07;;;2.13;;
9892;SDS011;4985;49.092;8.542;2023-04-25T02:58:43;2.50;;;1.90;;
9892;SDS011;4985;49.092;8.542;2023-04-25T03:01:10;2.23;;;2.00;;
9892;SDS011;4985;49.092;8.542;2023-04-25T03:03:36;2.57;;;2.20;;
9892;SDS011;4985;49.092;8.542;2023-04-25T03:06:04;3.33;;;2.13;;
9892;SDS011;4985;49.092;8.542;2023-04-25T03:08:31;3.97;;;1.90;;
9892;SDS011;4985;49.092;8.542;2023-04-25T03:10:59;2.27;;;1.80;;
9892;SDS011;4985;49.092;8.542;2023-04-25T03:13:25;2.10;;;1.90;;
9892;SDS011;4985;49.092;8.542;2023-04-25T03:15:54;2.10;;;1.90;;
9892;SDS011;4985;49.092;8.542;2023-04-25T03:18:21;2.60;;;2.00;;
9892;SDS011;4985;49.092;8.542;2023-04-25T03:20:48;1.83;;;1.70;;
9892;SDS011;4985;49.092;8.542;2023-04-25T03:23:15;2.27;;;1.70;;
9892;SDS011;4985;49.092;8.542;2023-04-25T03:25:42;3.13;;;1.63;;
9892;SDS011;4985;49.092;8.542;2023-04-25T03:28:09;2.60;;;1.73;;
9892;SDS011;4985;49.092;8.542;2023-04-25T03:30:35;1.93;;;1.60;;
9892;SDS011;4985;49.092;8.542;2023-04-25T03:33:02;1.87;;;1.70;;
9892;SDS011;4985;49.092;8.542;2023-04-25T03:35:28;2.10;;;1.90;;
9892;SDS011;4985;49.092;8.542;2023-04-25T03:37:55;2.47;;;1.80;;
9892;SDS011;4985;49.092;8.542;2023-04-25T03:40:23;2.57;;;2.03;;
9892;SDS011;4985;49.092;8.542;2023-04-25T03:42:50;2.30;;;1.83;;
9892;SDS011;4985;49.092;8.542;2023-04-25T03:45:16;2.10;;;1.90;;
9892;SDS011;4985;49.092;8.542;2023-04-25T03:47:43;2.10;;;1.90;;
9892;SDS011;4985;49.092;8.542;2023-04-25T03:50:09;2.10;;;1.67;;
9892;SDS011;4985;49.092;8.542;2023-04-25T03:52:36;4.53;;;2.37;;
9892;SDS011;4985;49.092;8.542;2023-04-25T03:55:03;1.63;;;1.53;;
9892;SDS011;4985;49.092;8.542;2023-04-25T03:57:32;3.00;;;1.83;;
9892;SDS011;4985;49.092;8.542;2023-04-25T03:59:58;2.40;;;2.20;;
9892;SDS011;4985;49.092;8.542;2023-04-25T04:02:25;2.03;;;1.73;;
9892;SDS011;4985;49.092;8.542;2023-04-25T04:04:51;2.70;;;2.23;;
9892;SDS011;4985;49.092;8.542;2023-04-25T04:07:18;2.73;;;2.40;;
9892;SDS011;4985;49.092;8.542;2023-04-25T04:09:44;4.60;;;3.80;;
9892;SDS011;4985;49.092;8.542;2023-04-25T04:12:11;3.93;;;2.77;;
9892;SDS011;4985;49.092;8.542;2023-04-25T04:14:39;3.67;;;2.67;;
9892;SDS011;4985;49.092;8.542;2023-04-25T04:17:06;3.87;;;3.17;;
9892;SDS011;4985;49.092;8.542;2023-04-25T04:19:32;4.77;;;4.30;;
9892;SDS011;4985;49.092;8.542;2023-04-25T04:21:59;4.20;;;3.80;;
9892;SDS011;4985;49.092;8.542;2023-04-25T04:24:26;3.73;;;2.20;;
9892;SDS011;4985;49.092;8.542;2023-04-25T04:26:52;3.00;;;1.83;;
9892;SDS011;4985;49.092;8.542;2023-04-25T04:29:19;3.90;;;2.30;;
9892;SDS011;4985;49.092;8.542;2023-04-25T04:31:48;3.97;;;1.83;;
9892;SDS011;4985;49.092;8.542;2023-04-25T04:34:15;4.20;;;2.00;;
9892;SDS011;4985;49.092;8.542;2023-04-25T04:36:42;2.33;;;2.13;;
9892;SDS011;4985;49.092;8.542;2023-04-25T04:39:10;2.67;;;2.00;;
9892;SDS011;4985;49.092;8.542;2023-04-25T04:41:36;2.03;;;1.77;;
9892;SDS011;4985;49.092;8.542;2023-04-25T04:44:03;2.40;;;1.77;;
9892;SDS011;4985;49.092;8.542;2023-04-25T04:46:31;2.50;;;1.80;;
9892;SDS011;4985;49.092;8.542;2023-04-25T04:49:03;1.90;;;1.63;;
9892;SDS011;4985;49.092;8.542;2023-04-25T04:51:30;4.43;;;1.83;;
9892;SDS011;4985;49.092;8.542;2023-04-25T04:53:58;2.03;;;1.70;;
9892;SDS011;4985;49.092;8.542;2023-04-25T04:56:27;1.97;;;1.77;;
9892;SDS011;4985;49.092;8.542;2023-04-25T04:58:54;2.60;;;1.90;;
9892;SDS011;4985;49.092;8.542;2023-04-25T05:01:21;2.83;;;1.70;;
9892;SDS011;4985;49.092;8.542;2023-04-25T05:03:48;2.70;;;2.10;;
9892;SDS011;4985;49.092;8.542;2023-04-25T05:06:16;2.17;;;1.80;;
9892;SDS011;4985;49.092;8.542;2023-04-25T05:08:42;3.33;;;2.10;;
9892;SDS011;4985;49.092;8.542;2023-04-25T05:11:09;2.40;;;1.57;;
9892;SDS011;4985;49.092;8.542;2023-04-25T05:13:36;3.80;;;1.90;;
9892;SDS011;4985;49.092;8.542;2023-04-25T05:16:02;3.03;;;2.10;;
9892;SDS011;4985;49.092;8.542;2023-04-25T05:18:29;1.80;;;1.70;;
9892;SDS011;4985;49.092;8.542;2023-04-25T05:20:56;3.47;;;2.00;;
9892;SDS011;4985;49.092;8.542;2023-04-25T05:23:24;2.20;;;2.00;;
9892;SDS011;4985;49.092;8.542;2023-04-25T05:25:52;2.70;;;1.70;;
9892;SDS011;4985;49.092;8.542;2023-04-25T05:28:19;2.97;;;2.20;;
9892;SDS011;4985;49.092;8.542;2023-04-25T05:30:46;1.90;;;1.80;;
9892;SDS011;4985;49.092;8.542;2023-04-25T05:33:12;2.63;;;1.93;;
9892;SDS011;4985;49.092;8.542;2023-04-25T05:35:39;2.50;;;1.80;;
9892;SDS011;4985;49.092;8.542;2023-04-25T05:38:06;2.00;;;1.80;;
9892;SDS011;4985;49.092;8.542;2023-04-25T05:40:34;2.23;;;1.70;;
9892;SDS011;4985;49.092;8.542;2023-04-25T05:43:00;2.83;;;1.90;;
9892;SDS011;4985;49.092;8.542;2023-04-25T05:45:27;2.00;;;1.80;;
9892;SDS011;4985;49.092;8.542;2023-04-25T05:47:54;2.43;;;1.77;;
9892;SDS011;4985;49.092;8.542;2023-04-25T05:50:20;3.07;;;2.00;;
9892;SDS011;4985;49.092;8.542;2023-04-25T05:52:47;2.47;;;1.90;;
9892;SDS011;4985;49.092;8.542;2023-04-25T05:55:14;8.53;;;4.63;;
9892;SDS011;4985;49.092;8.542;2023-04-25T05:57:42;4.20;;;2.20;;
9892;SDS011;4985;49.092;8.542;2023-04-25T06:00:11;2.70;;;2.20;;
9892;SDS011;4985;49.092;8.542;2023-04-25T06:02:40;1.80;;;1.70;;
9892;SDS011;4985;49.092;8.542;2023-04-25T06:05:07;2.17;;;1.73;;
9892;SDS011;4985;49.092;8.542;2023-04-25T06:07:34;2.47;;;2.10;;
9892;SDS011;4985;49.092;8.542;2023-04-25T06:10:00;1.83;;;1.73;;
9892;SDS011;4985;49.092;8.542;2023-04-25T06:12:28;2.33;;;1.83;;
9892;SDS011;4985;49.092;8.542;2023-04-25T06:14:56;2.47;;;2.20;;
9892;SDS011;4985;49.092;8.542;2023-04-25T06:17:23;2.10;;;1.90;;
9892;SDS011;4985;49.092;8.542;2023-04-25T06:19:49;2.73;;;1.97;;
9892;SDS011;4985;49.092;8.542;2023-04-25T06:22:16;2.67;;;2.30;;
9892;SDS011;4985;49.092;8.542;2023-04-25T06:24:42;3.13;;;2.30;;
9892;SDS011;4985;49.092;8.542;2023-04-25T06:27:10;2.77;;;2.10;;
9892;SDS011;4985;49.092;8.542;2023-04-25T06:29:37;3.07;;;2.10;;
9892;SDS011;4985;49.092;8.542;2023-04-25T06:32:05;2.30;;;1.93;;
9892;SDS011;4985;49.092;8.542;2023-04-25T06:34:35;2.77;;;2.10;;
9892;SDS011;4985;49.092;8.542;2023-04-25T06:37:01;2.80;;;2.13;;
9892;SDS011;4985;49.092;8.542;2023-04-25T06:39:28;3.17;;;2.20;;
9892;SDS011;4985;49.092;8.542;2023-04-25T06:41:55;2.10;;;1.73;;
9892;SDS011;4985;49.092;8.542;2023-04-25T06:44:21;2.07;;;1.87;;
9892;SDS011;4985;49.092;8.542;2023-04-25T06:46:51;3.00;;;2.30;;
9892;SDS011;4985;49.092;8.542;2023-04-25T06:49:19;2.33;;;2.03;;
9892;SDS011;4985;49.092;8.542;2023-04-25T06:51:46;2.13;;;1.90;;
9892;SDS011;4985;49.092;8.542;2023-04-25T06:54:12;4.63;;;2.27;;
9892;SDS011;4985;49.092;8.542;2023-04-25T06:56:39;4.37;;;2.37;;
9892;SDS011;4985;49.092;8.542;2023-04-25T06:59:06;2.40;;;2.03;;
9892;SDS011;4985;49.092;8.542;2023-04-25T07:01:32;2.40;;;1.80;;
9892;SDS011;4985;49.092;8.542;2023-04-25T07:04:00;3.40;;;2.40;;
9892;SDS011;4985;49.092;8.542;2023-04-25T07:06:28;2.10;;;1.90;;
9892;SDS011;4985;49.092;8.542;2023-04-25T07:08:54;3.70;;;2.47;;
9892;SDS011;4985;49.092;8.542;2023-04-25T07:11:21;2.93;;;2.47;;
9892;SDS011;4985;49.092;8.542;2023-04-25T07:13:48;2.53;;;1.93;;
9892;SDS011;4985;49.092;8.542;2023-04-25T07:16:14;5.83;;;2.10;;
9892;SDS011;4985;49.092;8.542;2023-04-25T07:18:42;4.17;;;2.37;;
9892;SDS011;4985;49.092;8.542;2023-04-25T07:21:08;2.90;;;2.20;;
9892;SDS011;4985;49.092;8.542;2023-04-25T07:23:36;2.27;;;2.07;;
9892;SDS011;4985;49.092;8.542;2023-04-25T07:26:05;3.97;;;2.60;;
9892;SDS011;4985;49.092;8.542;2023-04-25T07:28:32;2.97;;;2.17;;
9892;SDS011;4985;49.092;8.542;2023-04-25T07:30:59;2.73;;;2.10;;
9892;SDS011;4985;49.092;8.542;2023-04-25T07:33:25;3.43;;;2.43;;
9892;SDS011;4985;49.092;8.542;2023-04-25T07:35:53;3.13;;;2.47;;
9892;SDS011;4985;49.092;8.542;2023-04-25T07:38:19;3.33;;;2.60;;
9892;SDS011;4985;49.092;8.542;2023-04-25T07:40:48;3.80;;;3.07;;
9892;SDS011;4985;49.092;8.542;2023-04-25T07:43:15;2.73;;;2.33;;
9892;SDS011;4985;49.092;8.542;2023-04-25T07:45:42;4.90;;;3.40;;
9892;SDS011;4985;49.092;8.542;2023-04-25T07:48:09;3.03;;;2.57;;
9892;SDS011;4985;49.092;8.542;2023-04-25T07:50:36;3.03;;;2.73;;
9892;SDS011;4985;49.092;8.542;2023-04-25T07:53:02;3.57;;;2.57;;
9892;SDS011;4985;49.092;8.542;2023-04-25T07:55:29;2.77;;;2.47;;
9892;SDS011;4985;49.092;8.542;2023-04-25T07:57:57;3.17;;;2.57;;
9892;SDS011;4985;49.092;8.542;2023-04-25T08:00:23;3.00;;;2.47;;
9892;SDS011;4985;49.092;8.542;2023-04-25T08:02:50;4.23;;;2.53;;
9892;SDS011;4985;49.092;8.542;2023-04-25T08:05:17;3.17;;;2.40;;
9892;SDS011;4985;49.092;8.542;2023-04-25T08:07:43;4.00;;;2.80;;
9892;SDS011;4985;49.092;8.542;2023-04-25T08:10:10;4.43;;;3.17;;
9892;SDS011;4985;49.092;8.542;2023-04-25T08:12:37;5.13;;;3.47;;
9892;SDS011;4985;49.092;8.542;2023-04-25T08:15:05;4.60;;;3.00;;
9892;SDS011;4985;49.092;8.542;2023-04-25T08:17:32;4.77;;;3.23;;
9892;SDS011;4985;49.092;8.542;2023-04-25T08:19:59;3.27;;;2.40;;
9892;SDS011;4985;49.092;8.542;2023-04-25T08:22:25;3.33;;;2.73;;
9892;SDS011;4985;49.092;8.542;2023-04-25T08:24:52;3.80;;;3.33;;
9892;SDS011;4985;49.092;8.542;2023-04-25T08:27:19;5.13;;;3.10;;
9892;SDS011;4985;49.092;8.542;2023-04-25T08:29:46;3.50;;;2.73;;
9892;SDS011;4985;49.092;8.542;2023-04-25T08:32:14;4.23;;;3.40;;
9892;SDS011;4985;49.092;8.542;2023-04-25T08:34:41;3.03;;;2.57;;
9892;SDS011;4985;49.092;8.542;2023-04-25T08:37:09;3.13;;;2.70;;
9892;SDS011;4985;49.092;8.542;2023-04-25T08:39:36;3.87;;;2.93;;
9892;SDS011;4985;49.092;8.542;2023-04-25T08:42:04;3.10;;;2.80;;
9892;SDS011;4985;49.092;8.542;2023-04-25T08:44:32;4.50;;;3.10;;
9892;SDS011;4985;49.092;8.542;2023-04-25T08:46:59;4.37;;;2.80;;
9892;SDS011;4985;49.092;8.542;2023-04-25T08:49:29;3.93;;;3.07;;
9892;SDS011;4985;49.092;8.542;2023-04-25T08:51:57;4.13;;;3.10;;
9892;SDS011;4985;49.092;8.542;2023-04-25T08:54:26;3.97;;;3.17;;
9892;SDS011;4985;49.092;8.542;2023-04-25T08:56:54;4.17;;;3.03;;
9892;SDS011;4985;49.092;8.542;2023-04-25T08:59:22;5.03;;;3.33;;
9892;SDS011;4985;49.092;8.542;2023-04-25T09:01:49;3.30;;;2.70;;
9892;SDS011;4985;49.092;8.542;2023-04-25T09:04:16;3.33;;;2.80;;
9892;SDS011;4985;49.092;8.542;2023-04-25T09:06:45;2.20;;;1.90;;
9892;SDS011;4985;49.092;8.542;2023-04-25T09:09:11;2.03;;;1.63;;
9892;SDS011;4985;49.092;8.542;2023-04-25T09:11:38;1.43;;;1.33;;
9892;SDS011;4985;49.092;8.542;2023-04-25T09:14:12;1.63;;;1.53;;
9892;SDS011;4985;49.092;8.542;2023-04-25T09:16:57;2.10;;;1.67;;
9892;SDS011;4985;49.092;8.542;2023-04-25T09:19:25;1.63;;;1.53;;
9892;SDS011;4985;49.092;8.542;2023-04-25T09:21:55;1.53;;;1.40;;
9892;SDS011;4985;49.092;8.542;2023-04-25T09:24:29;1.20;;;1.10;;
9892;SDS011;4985;49.092;8.542;2023-04-25T09:26:59;1.77;;;1.47;;
9892;SDS011;4985;49.092;8.542;2023-04-25T09:29:29;1.30;;;1.20;;
9892;SDS011;4985;49.092;8.542;2023-04-25T09:32:10;1.47;;;1.37;;
9892;SDS011;4985;49.092;8.542;2023-04-25T09:34:39;1.40;;;1.30;;
9892;SDS011;4985;49.092;8.542;2023-04-25T09:37:08;2.57;;;1.60;;
9892;SDS011;4985;49.092;8.542;2023-04-25T09:39:35;1.70;;;1.60;;
9892;SDS011;4985;49.092;8.542;2023-04-25T09:42:03;3.87;;;1.53;;
9892;SDS011;4985;49.092;8.542;2023-04-25T09:44:30;2.00;;;1.60;;
9892;SDS011;4985;49.092;8.542;2023-04-25T09:46:56;1.77;;;1.60;;
9892;SDS011;4985;49.092;8.542;2023-04-25T09:49:24;2.17;;;1.67;;
9892;SDS011;4985;49.092;8.542;2023-04-25T09:51:54;2.43;;;1.77;;
9892;SDS011;4985;49.092;8.542;2023-04-25T09:54:23;2.40;;;2.20;;
9892;SDS011;4985;49.092;8.542;2023-04-25T09:56:51;3.67;;;2.73;;
9892;SDS011;4985;49.092;8.542;2023-04-25T09:59:18;3.47;;;2.43;;
9892;SDS011;4985;49.092;8.542;2023-04-25T10:01:46;4.67;;;2.80;;
9892;SDS011;4985;49.092;8.542;2023-04-25T10:04:16;4.40;;;2.97;;
9892;SDS011;4985;49.092;8.542;2023-04-25T10:06:46;6.37;;;4.07;;
9892;SDS011;4985;49.092;8.542;2023-04-25T10:09:15;5.10;;;3.13;;
9892;SDS011;4985;49.092;8.542;2023-04-25T10:11:45;3.77;;;2.70;;
9892;SDS011;4985;49.092;8.542;2023-04-25T10:14:12;3.90;;;3.10;;
9892;SDS011;4985;49.092;8.542;2023-04-25T10:16:40;3.73;;;2.40;;
9892;SDS011;4985;49.092;8.542;2023-04-25T10:19:07;6.23;;;2.63;;
9892;SDS011;4985;49.092;8.542;2023-04-25T10:21:35;6.10;;;2.50;;
9892;SDS011;4985;49.092;8.542;2023-04-25T10:24:06;5.30;;;2.80;;
9892;SDS011;4985;49.092;8.542;2023-04-25T10:26:34;3.53;;;2.37;;
9892;SDS011;4985;49.092;8.542;2023-04-25T10:29:02;2.97;;;2.50;;
9892;SDS011;4985;49.092;8.542;2023-04-25T10:31:30;3.30;;;2.53;;
9892;SDS011;4985;49.092;8.542;2023-04-25T10:33:57;5.07;;;2.70;;
9892;SDS011;4985;49.092;8.542;2023-04-25T10:36:25;6.10;;;3.00;;
9892;SDS011;4985;49.092;8.542;2023-04-25T10:38:52;4.27;;;2.40;;
9892;SDS011;4985;49.092;8.542;2023-04-25T10:41:19;3.90;;;2.70;;
9892;SDS011;4985;49.092;8.542;2023-04-25T10:43:48;5.53;;;2.70;;
9892;SDS011;4985;49.092;8.542;2023-04-25T10:46:17;5.17;;;3.00;;
9892;SDS011;4985;49.092;8.542;2023-04-25T10:48:46;4.90;;;2.77;;
9892;SDS011;4985;49.092;8.542;2023-04-25T10:51:17;5.10;;;3.30;;
9892;SDS011;4985;49.092;8.542;2023-04-25T10:53:56;6.47;;;3.53;;
9892;SDS011;4985;49.092;8.542;2023-04-25T10:56:25;4.87;;;2.90;;
9892;SDS011;4985;49.092;8.542;2023-04-25T10:58:55;5.53;;;3.10;;
9892;SDS011;4985;49.092;8.542;2023-04-25T11:01:35;4.63;;;2.90;;
9892;SDS011;4985;49.092;8.542;2023-04-25T11:04:03;5.63;;;3.47;;
9892;SDS011;4985;49.092;8.542;2023-04-25T11:06:32;5.10;;;2.70;;
9892;SDS011;4985;49.092;8.542;2023-04-25T11:09:10;4.93;;;2.97;;
9892;SDS011;4985;49.092;8.542;2023-04-25T11:11:38;3.90;;;2.83;;
9892;SDS011;4985;49.092;8.542;2023-04-25T11:14:05;5.77;;;3.23;;
9892;SDS011;4985;49.092;8.542;2023-04-25T11:16:33;4.30;;;3.10;;
9892;SDS011;4985;49.092;8.542;2023-04-25T11:19:01;4.30;;;3.03;;
9892;SDS011;4985;49.092;8.542;2023-04-25T11:21:28;5.67;;;3.27;;
9892;SDS011;4985;49.092;8.542;2023-04-25T11:23:56;4.83;;;3.27;;
9892;SDS011;4985;49.092;8.542;2023-04-25T11:26:24;3.80;;;3.23;;
9892;SDS011;4985;49.092;8.542;2023-04-25T11:28:51;5.03;;;3.00;;
9892;SDS011;4985;49.092;8.542;2023-04-25T11:31:19;4.07;;;3.23;;
9892;SDS011;4985;49.092;8.542;2023-04-25T11:33:47;3.80;;;3.20;;
9892;SDS011;4985;49.092;8.542;2023-04-25T11:36:14;6.23;;;3.30;;
9892;SDS011;4985;49.092;8.542;2023-04-25T11:38:40;4.57;;;2.77;;
9892;SDS011;4985;49.092;8.542;2023-04-25T11:41:07;3.70;;;2.53;;
9892;SDS011;4985;49.092;8.542;2023-04-25T11:43:34;6.33;;;3.77;;
9892;SDS011;4985;49.092;8.542;2023-04-25T11:46:00;4.67;;;2.90;;
9892;SDS011;4985;49.092;8.542;2023-04-25T11:48:27;4.50;;;2.53;;
9892;SDS011;4985;49.092;8.542;2023-04-25T11:50:56;3.90;;;2.67;;
9892;SDS011;4985;49.092;8.542;2023-04-25T11:53:23;5.37;;;3.97;;
9892;SDS011;4985;49.092;8.542;2023-04-25T11:55:50;3.27;;;2.30;;
9892;SDS011;4985;49.092;8.542;2023-04-25T11:58:16;4.07;;;2.43;;
9892;SDS011;4985;49.092;8.542;2023-04-25T12:00:44;4.40;;;2.77;;
9892;SDS011;4985;49.092;8.542;2023-04-25T12:03:11;3.80;;;3.17;;
9892;SDS011;4985;49.092;8.542;2023-04-25T12:05:37;3.43;;;2.70;;
9892;SDS011;4985;49.092;8.542;2023-04-25T12:08:12;4.40;;;3.27;;
9892;SDS011;4985;49.092;8.542;2023-04-25T12:10:40;3.97;;;3.00;;
9892;SDS011;4985;49.092;8.542;2023-04-25T12:13:18;3.80;;;3.07;;
9892;SDS011;4985;49.092;8.542;2023-04-25T12:15:45;3.87;;;2.67;;
9892;SDS011;4985;49.092;8.542;2023-04-25T12:18:12;3.83;;;2.97;;
9892;SDS011;4985;49.092;8.542;2023-04-25T12:20:39;5.20;;;3.30;;
9892;SDS011;4985;49.092;8.542;2023-04-25T12:23:05;5.10;;;3.40;;
9892;SDS011;4985;49.092;8.542;2023-04-25T12:25:35;3.10;;;2.60;;
9892;SDS011;4985;49.092;8.542;2023-04-25T12:28:13;3.10;;;2.80;;
9892;SDS011;4985;49.092;8.542;2023-04-25T12:30:56;3.47;;;2.47;;
9892;SDS011;4985;49.092;8.542;2023-04-25T12:33:23;5.53;;;3.33;;
9892;SDS011;4985;49.092;8.542;2023-04-25T12:35:51;4.50;;;2.73;;
9892;SDS011;4985;49.092;8.542;2023-04-25T12:38:22;2.80;;;2.57;;
9892;SDS011;4985;49.092;8.542;2023-04-25T12:40:50;3.00;;;2.63;;
9892;SDS011;4985;49.092;8.542;2023-04-25T12:43:17;3.20;;;2.80;;
9892;SDS011;4985;49.092;8.542;2023-04-25T12:45:44;4.17;;;3.20;;
9892;SDS011;4985;49.092;8.542;2023-04-25T12:48:10;3.63;;;3.00;;
9892;SDS011;4985;49.092;8.542;2023-04-25T12:50:37;4.20;;;3.17;;
9892;SDS011;4985;49.092;8.542;2023-04-25T12:53:03;4.97;;;3.33;;
9892;SDS011;4985;49.092;8.542;2023-04-25T12:55:30;6.77;;;3.53;;
9892;SDS011;4985;49.092;8.542;2023-04-25T12:57:58;4.43;;;3.13;;
9892;SDS011;4985;49.092;8.542;2023-04-25T13:00:25;5.43;;;3.87;;
9892;SDS011;4985;49.092;8.542;2023-04-25T13:02:52;4.67;;;2.67;;
9892;SDS011;4985;49.092;8.542;2023-04-25T13:05:18;5.13;;;3.00;;
9892;SDS011;4985;49.092;8.542;2023-04-25T13:07:45;3.87;;;2.30;;
9892;SDS011;4985;49.092;8.542;2023-04-25T13:10:11;4.23;;;2.90;;
9892;SDS011;4985;49.092;8.542;2023-04-25T13:12:38;5.13;;;2.80;;
9892;SDS011;4985;49.092;8.542;2023-04-25T13:15:07;4.13;;;2.80;;
9892;SDS011;4985;49.092;8.542;2023-04-25T13:17:36;3.13;;;2.77;;
9892;SDS011;4985;49.092;8.542;2023-04-25T13:20:03;4.63;;;3.17;;
9892;SDS011;4985;49.092;8.542;2023-04-25T13:22:31;4.17;;;3.40;;
9892;SDS011;4985;49.092;8.542;2023-04-25T13:24:57;4.03;;;2.57;;
9892;SDS011;4985;49.092;8.542;2023-04-25T13:27:24;3.60;;;2.87;;
9892;SDS011;4985;49.092;8.542;2023-04-25T13:29:51;4.87;;;3.20;;
9892;SDS011;4985;49.092;8.542;2023-04-25T13:32:19;5.37;;;3.57;;
9892;SDS011;4985;49.092;8.542;2023-04-25T13:34:45;5.47;;;3.60;;
9892;SDS011;4985;49.092;8.542;2023-04-25T13:37:12;7.77;;;4.27;;
9892;SDS011;4985;49.092;8.542;2023-04-25T13:39:38;6.00;;;4.10;;
9892;SDS011;4985;49.092;8.542;2023-04-25T13:42:05;5.37;;;3.43;;
9892;SDS011;4985;49.092;8.542;2023-04-25T13:44:31;7.20;;;3.83;;
9892;SDS011;4985;49.092;8.542;2023-04-25T13:46:58;6.47;;;3.20;;
9892;SDS011;4985;49.092;8.542;2023-04-25T13:49:27;5.83;;;4.03;;
9892;SDS011;4985;49.092;8.542;2023-04-25T13:51:53;5.77;;;3.57;;
9892;SDS011;4985;49.092;8.542;2023-04-25T13:54:20;4.60;;;3.00;;
9892;SDS011;4985;49.092;8.542;2023-04-25T13:56:47;5.37;;;3.33;;
9892;SDS011;4985;49.092;8.542;2023-04-25T13:59:15;5.97;;;3.53;;
9892;SDS011;4985;49.092;8.542;2023-04-25T14:01:42;6.97;;;3.20;;
9892;SDS011;4985;49.092;8.542;2023-04-25T14:04:08;4.90;;;3.20;;
9892;SDS011;4985;49.092;8.542;2023-04-25T14:06:36;4.17;;;3.03;;
9892;SDS011;4985;49.092;8.542;2023-04-25T14:09:03;5.30;;;3.13;;
9892;SDS011;4985;49.092;8.542;2023-04-25T14:11:31;5.47;;;3.00;;
9892;SDS011;4985;49.092;8.542;2023-04-25T14:13:58;5.27;;;3.20;;
9892;SDS011;4985;49.092;8.542;2023-04-25T14:16:24;4.77;;;3.07;;
9892;SDS011;4985;49.092;8.542;2023-04-25T14:18:51;6.43;;;3.27;;
9892;SDS011;4985;49.092;8.542;2023-04-25T14:21:19;4.93;;;3.23;;
9892;SDS011;4985;49.092;8.542;2023-04-25T14:23:47;3.77;;;2.63;;
9892;SDS011;4985;49.092;8.542;2023-04-25T14:26:13;8.93;;;3.87;;
9892;SDS011;4985;49.092;8.542;2023-04-25T14:28:41;4.37;;;3.00;;
9892;SDS011;4985;49.092;8.542;2023-04-25T14:31:07;7.33;;;3.20;;
9892;SDS011;4985;49.092;8.542;2023-04-25T14:33:34;5.17;;;3.10;;
9892;SDS011;4985;49.092;8.542;2023-04-25T14:36:02;4.53;;;3.20;;
9892;SDS011;4985;49.092;8.542;2023-04-25T14:38:29;7.40;;;2.83;;
9892;SDS011;4985;49.092;8.542;2023-04-25T14:40:57;3.87;;;2.90;;
9892;SDS011;4985;49.092;8.542;2023-04-25T14:43:23;6.60;;;3.63;;
9892;SDS011;4985;49.092;8.542;2023-04-25T14:45:50;4.93;;;2.57;;
9892;SDS011;4985;49.092;8.542;2023-04-25T14:48:17;3.43;;;2.50;;
9892;SDS011;4985;49.092;8.542;2023-04-25T14:50:44;3.27;;;2.43;;
9892;SDS011;4985;49.092;8.542;2023-04-25T14:53:11;5.63;;;3.30;;
9892;SDS011;4985;49.092;8.542;2023-04-25T14:55:37;6.70;;;2.70;;
9892;SDS011;4985;49.092;8.542;2023-04-25T14:58:05;3.93;;;2.87;;
9892;SDS011;4985;49.092;8.542;2023-04-25T15:00:32;6.43;;;2.80;;
9892;SDS011;4985;49.092;8.542;2023-04-25T15:02:59;4.90;;;3.43;;
9892;SDS011;4985;49.092;8.542;2023-04-25T15:05:25;5.33;;;2.73;;
9892;SDS011;4985;49.092;8.542;2023-04-25T15:07:52;3.13;;;2.77;;
9892;SDS011;4985;49.092;8.542;2023-04-25T15:10:19;4.43;;;2.90;;
9892;SDS011;4985;49.092;8.542;2023-04-25T15:12:46;5.27;;;2.93;;
9892;SDS011;4985;49.092;8.542;2023-04-25T15:15:14;2.70;;;2.47;;
9892;SDS011;4985;49.092;8.542;2023-04-25T15:17:41;3.70;;;2.77;;